Kingfield, Maine
Current Conditions -  °F | °C
As of 3:15 PM on Monday 24 Nov 2014 (Local Time) from KWVL Reporting Station
Overcast Overcast  
Wind Chill: 14°   Ceiling: 300
Heat Index: 14°   Visibility: 9mi
Dew Point: 12°   Wind: 12mph
Humidity: 88%   Direction: 180°S
Pressure: 29.53"   Gusts: 21mph
Location:  44.96°N, 70.15°W
Report Text: KWVL 242015Z 18010G18KT 140V230 9SM OVC003 14/12 A2953 RMK AO1
Loading
Personal Weather Stations






























Interactive Weather Map New forecast layout! Learn more

10-Day Weather Forecast

Advertisements
Track Severe Weather on mobile